createdAt,value
2023-03-13T00:00:38.535Z,6.10
2023-03-13T00:03:07.196Z,6.50
2023-03-13T00:05:36.715Z,5.77
2023-03-13T00:08:05.237Z,7.20
2023-03-13T00:10:33.509Z,7.60
2023-03-13T00:13:01.953Z,7.10
2023-03-13T00:15:30.235Z,6.40
2023-03-13T00:17:58.477Z,7.73
2023-03-13T00:20:26.840Z,6.27
2023-03-13T00:22:55.152Z,5.60
2023-03-13T00:25:23.381Z,5.70
2023-03-13T00:27:51.296Z,5.63
2023-03-13T00:30:19.784Z,5.93
2023-03-13T00:32:48.781Z,7.13
2023-03-13T00:35:17.132Z,6.63
2023-03-13T00:37:45.748Z,7.27
2023-03-13T00:40:14.226Z,6.27
2023-03-13T00:42:42.561Z,8.20
2023-03-13T00:45:11.386Z,6.43
2023-03-13T00:47:39.761Z,6.70
2023-03-13T00:50:08.408Z,6.83
2023-03-13T00:52:36.834Z,7.00
2023-03-13T00:55:05.679Z,5.93
2023-03-13T00:57:35.633Z,5.87
2023-03-13T01:00:06.883Z,7.23
2023-03-13T01:02:34.704Z,6.70
2023-03-13T01:05:04.136Z,7.63
2023-03-13T01:07:32.019Z,7.20
2023-03-13T01:10:00.627Z,7.67
2023-03-13T01:12:29.086Z,8.00
2023-03-13T01:14:57.098Z,7.97
2023-03-13T01:17:25.602Z,9.10
2023-03-13T01:19:55.470Z,10.50
2023-03-13T01:24:52.680Z,14.30
2023-03-13T01:27:21.133Z,15.37
2023-03-13T01:29:49.563Z,16.53
2023-03-13T01:32:18.045Z,10.63
2023-03-13T01:34:46.558Z,8.00
2023-03-13T01:37:15.101Z,8.90
2023-03-13T01:39:43.556Z,9.87
2023-03-13T01:42:11.904Z,9.23
2023-03-13T01:44:53.181Z,8.03
2023-03-13T01:47:21.717Z,9.03
2023-03-13T01:49:51.520Z,8.03
2023-03-13T01:52:20.838Z,9.10
2023-03-13T01:54:50.737Z,6.93
2023-03-13T01:59:46.535Z,5.95
2023-03-13T02:02:15.717Z,10.50
2023-03-13T02:04:47.988Z,10.87
2023-03-13T02:07:18.041Z,10.53
2023-03-13T02:09:49.155Z,8.00
2023-03-13T02:12:18.463Z,9.47
2023-03-13T02:14:47.686Z,12.43
2023-03-13T02:17:16.448Z,9.77
2023-03-13T02:19:46.120Z,10.20
2023-03-13T02:22:22.055Z,10.80
2023-03-13T02:24:54.941Z,12.03
2023-03-13T02:27:23.476Z,10.87
2023-03-13T02:29:53.040Z,14.67
2023-03-13T02:32:20.911Z,13.63
2023-03-13T02:34:51.172Z,17.07
2023-03-13T02:37:20.220Z,12.23
2023-03-13T02:39:50.440Z,11.47
2023-03-13T02:42:19.976Z,14.17
2023-03-13T02:44:48.674Z,12.37
2023-03-13T02:47:21.213Z,16.27
2023-03-13T02:49:51.506Z,13.07
2023-03-13T02:52:20.893Z,12.07
2023-03-13T02:54:50.761Z,10.40
2023-03-13T02:57:19.035Z,12.47
2023-03-13T02:59:47.562Z,10.87
2023-03-13T03:02:15.937Z,10.40
2023-03-13T03:04:43.801Z,11.80
2023-03-13T03:07:12.599Z,10.87
2023-03-13T03:09:41.017Z,12.67
2023-03-13T03:12:09.767Z,13.30
2023-03-13T03:14:37.677Z,15.33
2023-03-13T03:17:06.147Z,19.87
2023-03-13T03:19:34.534Z,15.07
2023-03-13T03:22:02.798Z,13.70
2023-03-13T03:24:31.274Z,14.83
2023-03-13T03:27:00.101Z,16.97
2023-03-13T03:29:28.683Z,15.40
2023-03-13T03:31:57.006Z,12.67
2023-03-13T03:34:25.056Z,12.80
2023-03-13T03:36:53.275Z,8.70
2023-03-13T03:39:21.844Z,13.23
2023-03-13T03:41:50.316Z,11.70
2023-03-13T03:44:18.733Z,19.07
2023-03-13T03:46:47.107Z,15.27
2023-03-13T03:49:15.645Z,12.37
2023-03-13T03:51:43.390Z,12.97
2023-03-13T03:54:11.783Z,12.03
2023-03-13T03:56:40.171Z,11.30
2023-03-13T03:59:08.577Z,11.93
2023-03-13T04:01:36.992Z,10.30
2023-03-13T04:04:05.718Z,10.73
2023-03-13T04:06:34.129Z,12.87
2023-03-13T04:09:02.379Z,12.30
2023-03-13T04:11:30.352Z,18.50
2023-03-13T04:13:58.150Z,17.93
2023-03-13T04:16:26.067Z,18.07
2023-03-13T04:18:54.494Z,20.60
2023-03-13T04:21:23.360Z,16.50
2023-03-13T04:23:51.228Z,13.43
2023-03-13T04:26:19.197Z,18.83
2023-03-13T04:28:47.115Z,15.63
2023-03-13T04:31:15.696Z,14.90
2023-03-13T04:33:43.610Z,17.10
2023-03-13T04:36:12.018Z,17.33
2023-03-13T04:38:40.351Z,17.17
2023-03-13T04:41:08.746Z,18.60
2023-03-13T04:43:37.129Z,19.10
2023-03-13T04:46:05.598Z,17.53
2023-03-13T04:48:34.053Z,18.70
2023-03-13T04:51:02.432Z,21.77
2023-03-13T04:53:30.943Z,20.97
2023-03-13T04:55:59.059Z,24.43
2023-03-13T04:58:27.269Z,20.90
2023-03-13T05:00:57.376Z,19.90
2023-03-13T05:05:52.173Z,40.95
2023-03-13T05:08:20.293Z,30.03
2023-03-13T05:10:48.725Z,24.30
2023-03-13T05:13:17.022Z,25.67
2023-03-13T05:15:45.006Z,29.13
2023-03-13T05:18:13.509Z,27.63
2023-03-13T05:20:41.828Z,23.60
2023-03-13T05:23:10.104Z,29.20
2023-03-13T05:25:38.506Z,21.37
2023-03-13T05:28:07.028Z,24.20
2023-03-13T05:30:35.344Z,21.53
2023-03-13T05:33:03.830Z,23.03
2023-03-13T05:35:31.835Z,23.07
2023-03-13T05:38:00.392Z,21.10
2023-03-13T05:40:28.920Z,16.33
2023-03-13T05:42:58.182Z,14.33
2023-03-13T05:45:27.505Z,19.53
2023-03-13T05:47:56.063Z,17.63
2023-03-13T05:50:24.427Z,15.13
2023-03-13T05:52:53.249Z,11.67
2023-03-13T05:55:22.038Z,13.87
2023-03-13T05:57:50.518Z,11.30
2023-03-13T06:00:19.816Z,15.60
2023-03-13T06:02:48.214Z,25.07
2023-03-13T06:05:16.086Z,16.33
2023-03-13T06:07:44.457Z,18.30
2023-03-13T06:10:12.693Z,14.10
2023-03-13T06:12:41.052Z,14.73
2023-03-13T06:15:12.114Z,18.50
2023-03-13T06:17:40.343Z,20.57
2023-03-13T06:20:08.885Z,29.27
2023-03-13T06:22:37.291Z,18.90
2023-03-13T06:25:05.824Z,18.17
2023-03-13T06:27:35.160Z,19.10
2023-03-13T06:32:30.459Z,19.90
2023-03-13T06:34:59.106Z,14.40
2023-03-13T06:37:27.466Z,12.00
2023-03-13T06:39:55.942Z,10.20
2023-03-13T06:42:24.010Z,7.50
2023-03-13T06:44:52.397Z,7.13
2023-03-13T06:47:20.334Z,17.37
2023-03-13T06:49:48.846Z,10.37
2023-03-13T06:52:18.768Z,12.70
2023-03-13T06:54:46.779Z,15.53
2023-03-13T06:57:14.686Z,13.30
2023-03-13T06:59:43.186Z,13.70
2023-03-13T07:02:12.403Z,15.10
2023-03-13T07:07:07.807Z,9.80
2023-03-13T07:09:36.342Z,13.43
2023-03-13T07:12:05.954Z,9.17
2023-03-13T07:14:33.879Z,10.23
2023-03-13T07:17:01.797Z,9.60
2023-03-13T07:19:30.270Z,9.30
2023-03-13T07:21:58.657Z,11.10
2023-03-13T07:24:26.979Z,13.57
2023-03-13T07:27:06.204Z,9.80
2023-03-13T07:29:25.748Z,9.40
2023-03-13T07:31:54.245Z,12.33
2023-03-13T07:34:22.652Z,11.27
2023-03-13T07:36:51.022Z,11.63
2023-03-13T07:39:18.834Z,13.97
2023-03-13T07:41:47.520Z,10.73
2023-03-13T07:44:15.902Z,10.67
2023-03-13T07:46:44.594Z,41.27
2023-03-13T07:49:13.466Z,11.40
2023-03-13T07:51:44.212Z,12.53
2023-03-13T07:54:12.101Z,12.10
2023-03-13T07:56:40.914Z,9.60
2023-03-13T07:59:09.555Z,10.57
2023-03-13T08:01:38.302Z,10.23
2023-03-13T08:04:06.727Z,10.73
2023-03-13T08:06:40.220Z,10.97
2023-03-13T08:09:08.611Z,11.43
2023-03-13T08:11:37.345Z,12.30
2023-03-13T08:14:05.772Z,12.50
2023-03-13T08:16:35.286Z,11.67
2023-03-13T08:21:33.960Z,12.18
2023-03-13T08:24:05.218Z,10.23
2023-03-13T08:26:33.757Z,14.20
2023-03-13T08:29:03.006Z,11.37
2023-03-13T08:31:32.666Z,10.67
2023-03-13T08:34:01.343Z,10.20
2023-03-13T08:36:31.278Z,13.43
2023-03-13T08:39:01.324Z,8.40
2023-03-13T08:41:31.260Z,13.73
2023-03-13T08:43:59.750Z,11.63
2023-03-13T08:46:29.532Z,9.80
2023-03-13T08:48:57.813Z,11.67
2023-03-13T08:51:28.158Z,10.33
2023-03-13T08:53:57.465Z,10.93
2023-03-13T08:56:30.491Z,10.27
2023-03-13T08:59:00.537Z,10.70
2023-03-13T09:01:29.669Z,11.60
2023-03-13T09:03:57.988Z,11.83
2023-03-13T09:06:26.403Z,10.20
2023-03-13T09:08:56.485Z,10.27
2023-03-13T09:11:24.861Z,12.67
2023-03-13T09:13:53.287Z,10.33
2023-03-13T09:16:22.809Z,10.63
2023-03-13T09:21:19.310Z,11.22
2023-03-13T09:23:48.109Z,9.10
2023-03-13T09:26:16.614Z,11.63
2023-03-13T09:28:44.717Z,10.90
2023-03-13T09:31:15.046Z,10.83
2023-03-13T09:33:44.177Z,11.97
2023-03-13T09:36:12.395Z,11.07
2023-03-13T09:38:41.297Z,10.90
2023-03-13T09:41:11.153Z,14.97
2023-03-13T09:43:43.981Z,10.90
2023-03-13T09:46:13.471Z,10.60
2023-03-13T09:48:46.061Z,13.80
2023-03-13T09:51:18.884Z,11.43
2023-03-13T09:53:55.117Z,12.60
2023-03-13T09:56:27.830Z,11.17
2023-03-13T09:59:03.427Z,12.70
2023-03-13T10:01:32.846Z,10.03
2023-03-13T10:04:05.571Z,11.13
2023-03-13T10:06:38.137Z,8.13
2023-03-13T10:09:08.054Z,8.97
2023-03-13T10:11:40.374Z,12.93
2023-03-13T10:14:16.207Z,11.83
2023-03-13T10:16:45.588Z,10.43
2023-03-13T10:19:15.703Z,13.53
2023-03-13T10:21:45.318Z,10.80
2023-03-13T10:24:15.342Z,12.93
2023-03-13T10:26:44.015Z,9.47
2023-03-13T10:29:13.715Z,9.70
2023-03-13T10:31:43.632Z,10.87
2023-03-13T10:34:13.450Z,10.97
2023-03-13T10:36:43.389Z,28.70
2023-03-13T10:39:19.335Z,11.63
2023-03-13T10:41:49.301Z,15.83
2023-03-13T10:44:22.074Z,11.07
2023-03-13T10:46:52.183Z,12.30
2023-03-13T10:49:24.583Z,9.40
2023-03-13T10:51:53.870Z,10.13
2023-03-13T10:54:32.812Z,12.43
2023-03-13T10:57:20.829Z,12.60
2023-03-13T11:02:19.895Z,9.45
2023-03-13T11:04:49.952Z,8.93
2023-03-13T11:07:19.768Z,8.40
2023-03-13T11:10:06.529Z,10.93
2023-03-13T11:12:36.109Z,19.60
2023-03-13T11:17:39.452Z,11.30
2023-03-13T11:20:11.429Z,9.80
2023-03-13T11:22:41.338Z,11.43
2023-03-13T11:25:15.295Z,14.13
2023-03-13T11:27:51.242Z,8.17
2023-03-13T11:30:22.238Z,10.30
2023-03-13T11:32:56.977Z,15.10
2023-03-13T11:35:32.539Z,14.07
2023-03-13T11:38:01.914Z,10.37
2023-03-13T11:40:35.115Z,9.60
2023-03-13T11:43:25.049Z,9.27
2023-03-13T11:45:54.891Z,8.93
2023-03-13T11:48:33.720Z,11.40
2023-03-13T11:51:11.073Z,11.27
2023-03-13T11:53:47.302Z,9.27
2023-03-13T11:56:22.100Z,7.97
2023-03-13T11:59:08.514Z,11.77
2023-03-13T12:01:38.373Z,10.37
2023-03-13T12:04:07.718Z,9.27
2023-03-13T12:06:43.539Z,11.90
2023-03-13T12:11:41.653Z,9.25
2023-03-13T12:14:11.324Z,10.60
2023-03-13T12:16:40.779Z,8.83
2023-03-13T12:19:10.639Z,9.10
2023-03-13T12:21:40.571Z,10.87
2023-03-13T12:24:16.100Z,10.03
2023-03-13T12:26:46.296Z,9.67
2023-03-13T12:29:19.074Z,10.57
2023-03-13T12:31:54.769Z,10.03
2023-03-13T12:36:53.851Z,9.75
2023-03-13T12:39:23.700Z,9.83
2023-03-13T12:41:53.516Z,8.70
2023-03-13T12:44:22.159Z,10.17
2023-03-13T12:47:04.181Z,11.90
2023-03-13T12:49:36.827Z,10.50
2023-03-13T12:52:06.934Z,12.57
2023-03-13T12:54:36.215Z,18.40
2023-03-13T12:57:18.652Z,15.70
2023-03-13T12:59:51.880Z,13.77
2023-03-13T13:02:21.975Z,11.73
2023-03-13T13:04:51.694Z,11.63
2023-03-13T13:07:25.228Z,11.33
2023-03-13T13:10:13.884Z,13.63
2023-03-13T13:12:44.140Z,14.27
2023-03-13T13:15:19.853Z,11.23
2023-03-13T13:17:52.887Z,12.37
2023-03-13T13:20:29.953Z,14.47
2023-03-13T13:23:18.379Z,10.23
2023-03-13T13:25:46.707Z,14.90
2023-03-13T13:28:26.905Z,17.50
2023-03-13T13:30:56.455Z,13.00
2023-03-13T13:33:32.113Z,13.13
2023-03-13T13:36:20.665Z,15.10
2023-03-13T13:38:49.907Z,17.33
2023-03-13T13:41:19.734Z,14.67
2023-03-13T13:43:49.276Z,13.20
2023-03-13T13:46:25.057Z,13.70
2023-03-13T13:49:10.261Z,17.33
2023-03-13T13:51:39.493Z,12.27
2023-03-13T13:54:13.205Z,11.97
2023-03-13T13:56:43.269Z,13.83
2023-03-13T13:59:19.272Z,13.37
2023-03-13T14:01:49.000Z,15.07
2023-03-13T14:04:27.970Z,14.20
2023-03-13T14:06:57.876Z,17.83
2023-03-13T14:09:30.666Z,13.80
2023-03-13T14:11:59.215Z,14.23
2023-03-13T14:14:27.781Z,17.53
2023-03-13T14:17:00.748Z,13.47
2023-03-13T14:19:30.693Z,11.63
2023-03-13T14:22:00.657Z,17.60
2023-03-13T14:24:28.679Z,12.97
2023-03-13T14:26:57.305Z,13.73
2023-03-13T14:29:29.927Z,13.30
2023-03-13T14:31:59.341Z,13.13
2023-03-13T14:37:07.377Z,13.93
2023-03-13T14:39:36.340Z,11.53
2023-03-13T14:42:05.719Z,15.00
2023-03-13T14:47:03.699Z,15.35
2023-03-13T14:49:35.544Z,17.07
2023-03-13T14:52:05.471Z,15.43
2023-03-13T14:54:38.102Z,12.97
2023-03-13T14:57:17.135Z,12.50
2023-03-13T14:59:45.792Z,13.97
2023-03-13T15:02:24.838Z,14.27
2023-03-13T15:04:54.662Z,13.73
2023-03-13T15:07:23.816Z,11.47
2023-03-13T15:09:52.228Z,15.93
2023-03-13T15:12:22.561Z,13.03
2023-03-13T15:14:52.058Z,17.00
2023-03-13T15:17:21.482Z,11.87
2023-03-13T15:22:17.469Z,12.45
2023-03-13T15:24:59.523Z,12.97
2023-03-13T15:27:17.644Z,12.53
2023-03-13T15:29:46.386Z,16.63
2023-03-13T15:32:27.549Z,15.70
2023-03-13T15:34:57.416Z,14.60
2023-03-13T15:37:27.203Z,13.30
2023-03-13T15:39:56.172Z,13.83
2023-03-13T15:42:25.616Z,13.07
2023-03-13T15:44:53.848Z,14.00
2023-03-13T15:47:23.361Z,14.73
2023-03-13T15:49:51.152Z,14.17
2023-03-13T15:52:22.921Z,15.87
2023-03-13T15:54:51.796Z,19.67
2023-03-13T15:57:23.542Z,20.77
2023-03-13T15:59:52.346Z,20.20
2023-03-13T16:02:22.040Z,16.77
2023-03-13T16:04:50.810Z,12.77
2023-03-13T16:07:22.526Z,12.47
2023-03-13T16:09:51.259Z,21.77
2023-03-13T16:12:19.691Z,12.87
2023-03-13T16:14:48.076Z,16.13
2023-03-13T16:17:20.822Z,11.47
2023-03-13T16:19:49.445Z,10.23
2023-03-13T16:22:17.520Z,12.57
2023-03-13T16:24:45.730Z,18.83
2023-03-13T16:27:18.367Z,13.07
2023-03-13T16:29:47.061Z,11.43
2023-03-13T16:32:16.821Z,11.93
2023-03-13T16:34:44.721Z,27.53
2023-03-13T16:37:14.578Z,24.17
2023-03-13T16:39:43.951Z,20.90
2023-03-13T16:42:13.045Z,27.03
2023-03-13T16:44:41.732Z,22.83
2023-03-13T16:47:23.839Z,33.10
2023-03-13T16:49:52.315Z,25.70
2023-03-13T16:52:21.017Z,29.87
2023-03-13T16:54:49.441Z,24.07
2023-03-13T16:57:19.344Z,32.30
2023-03-13T16:59:47.172Z,35.70
2023-03-13T17:02:16.683Z,43.60
2023-03-13T17:07:23.981Z,34.85
2023-03-13T17:09:52.982Z,41.13
2023-03-13T17:12:21.548Z,69.20
2023-03-13T17:14:49.773Z,127.23
2023-03-13T17:17:19.708Z,116.23
2023-03-13T17:19:48.281Z,127.90
2023-03-13T17:22:17.651Z,102.97
2023-03-13T17:24:46.121Z,106.17
2023-03-13T17:27:15.063Z,147.27
2023-03-13T17:29:43.939Z,128.17
2023-03-13T17:32:13.114Z,127.03
2023-03-13T17:34:42.124Z,129.63
2023-03-13T17:37:15.112Z,94.07
2023-03-13T17:39:44.056Z,88.53
2023-03-13T17:42:12.940Z,129.43
2023-03-13T17:44:41.430Z,289.47
2023-03-13T17:47:17.235Z,320.60
2023-03-13T17:52:17.116Z,214.08
2023-03-13T17:54:46.200Z,206.67
2023-03-13T17:57:16.402Z,171.63
2023-03-13T17:59:45.269Z,260.97
2023-03-13T18:02:14.575Z,153.93
2023-03-13T18:04:43.819Z,193.57
2023-03-13T18:07:16.505Z,163.93
2023-03-13T18:09:46.145Z,111.67
2023-03-13T18:14:42.263Z,155.40
2023-03-13T18:17:12.161Z,175.17
2023-03-13T18:19:40.489Z,153.80
2023-03-13T18:22:10.304Z,132.83
2023-03-13T18:24:38.689Z,113.67
2023-03-13T18:27:08.510Z,91.43
2023-03-13T18:29:36.955Z,66.63
2023-03-13T18:32:05.057Z,58.17
2023-03-13T18:34:34.818Z,49.33
2023-03-13T18:37:06.149Z,43.37
2023-03-13T18:39:34.600Z,35.73
2023-03-13T18:42:03.114Z,35.47
2023-03-13T18:44:31.465Z,34.13
2023-03-13T18:46:59.838Z,21.20
2023-03-13T18:49:28.259Z,31.00
2023-03-13T18:51:56.749Z,26.67
2023-03-13T18:54:24.748Z,32.67
2023-03-13T18:56:53.261Z,38.20
2023-03-13T18:59:22.276Z,38.93
2023-03-13T19:01:51.594Z,37.43
2023-03-13T19:04:20.420Z,48.10
2023-03-13T19:06:49.405Z,38.87
2023-03-13T19:09:41.632Z,46.00
2023-03-13T19:11:49.540Z,44.17
2023-03-13T19:14:17.966Z,34.43
2023-03-13T19:16:50.481Z,27.33
2023-03-13T19:19:21.599Z,18.53
2023-03-13T19:21:50.473Z,17.90
2023-03-13T19:24:18.583Z,16.30
2023-03-13T19:26:48.980Z,20.20
2023-03-13T19:29:18.916Z,18.07
2023-03-13T19:31:46.986Z,17.73
2023-03-13T19:34:16.598Z,16.10
2023-03-13T19:36:46.422Z,11.67
2023-03-13T19:39:16.152Z,15.27
2023-03-13T19:44:11.086Z,19.73
2023-03-13T19:46:41.220Z,23.97
2023-03-13T19:49:10.642Z,27.30
2023-03-13T19:51:39.312Z,38.83
2023-03-13T19:54:08.127Z,32.93
2023-03-13T19:56:37.195Z,38.17
2023-03-13T19:59:06.711Z,56.33
2023-03-13T20:01:35.208Z,64.23
2023-03-13T20:04:03.651Z,53.03
2023-03-13T20:06:33.176Z,50.33
2023-03-13T20:09:02.802Z,29.67
2023-03-13T20:11:31.355Z,27.67
2023-03-13T20:13:59.925Z,30.17
2023-03-13T20:16:32.387Z,28.73
2023-03-13T20:19:00.920Z,18.93
2023-03-13T20:21:29.626Z,22.73
2023-03-13T20:23:58.528Z,32.20
2023-03-13T20:26:27.481Z,35.53
2023-03-13T20:28:56.447Z,50.33
2023-03-13T20:31:26.735Z,50.57
2023-03-13T20:33:55.912Z,45.33
2023-03-13T20:36:25.006Z,45.13
2023-03-13T20:38:53.257Z,43.50
2023-03-13T20:41:23.264Z,44.80
2023-03-13T20:43:52.728Z,45.33
2023-03-13T20:46:20.661Z,48.53
2023-03-13T20:48:48.892Z,54.90
2023-03-13T20:51:17.344Z,44.57
2023-03-13T20:53:45.770Z,43.50
2023-03-13T20:56:14.382Z,34.60
2023-03-13T20:58:42.172Z,31.17
2023-03-13T21:01:09.969Z,33.87
2023-03-13T21:03:37.879Z,42.73
2023-03-13T21:06:10.780Z,39.67
2023-03-13T21:08:39.138Z,31.40
2023-03-13T21:11:14.197Z,39.07
2023-03-13T21:13:42.774Z,34.33
2023-03-13T21:16:11.663Z,27.37
2023-03-13T21:18:40.535Z,27.50
2023-03-13T21:21:10.414Z,33.17
2023-03-13T21:23:38.880Z,33.67
2023-03-13T21:26:07.722Z,31.30
2023-03-13T21:28:35.582Z,32.10
2023-03-13T21:31:13.573Z,35.40
2023-03-13T21:33:41.892Z,25.67
2023-03-13T21:36:10.611Z,37.23
2023-03-13T21:38:39.229Z,32.87
2023-03-13T21:41:11.950Z,29.47
2023-03-13T21:43:42.090Z,28.40
2023-03-13T21:46:11.553Z,24.37
2023-03-13T21:48:40.589Z,18.30
2023-03-13T21:51:09.240Z,19.83
2023-03-13T21:53:37.788Z,13.93
2023-03-13T21:56:06.494Z,22.93
2023-03-13T21:58:34.964Z,27.00
2023-03-13T22:01:03.541Z,24.77
2023-03-13T22:03:31.806Z,25.57
2023-03-13T22:06:00.379Z,24.00
2023-03-13T22:08:28.679Z,24.60
2023-03-13T22:10:59.009Z,32.93
2023-03-13T22:13:27.391Z,26.50
2023-03-13T22:15:55.753Z,25.87
2023-03-13T22:18:24.242Z,27.53
2023-03-13T22:20:52.850Z,23.07
2023-03-13T22:23:21.218Z,26.87
2023-03-13T22:25:49.085Z,24.43
2023-03-13T22:28:17.348Z,21.37
2023-03-13T22:30:46.327Z,32.37
2023-03-13T22:33:14.600Z,31.17
2023-03-13T22:35:44.622Z,30.17
2023-03-13T22:38:13.037Z,29.97
2023-03-13T22:40:41.424Z,30.30
2023-03-13T22:43:09.674Z,36.97
2023-03-13T22:45:38.180Z,41.90
2023-03-13T22:48:07.236Z,45.60
2023-03-13T22:50:35.485Z,22.63
2023-03-13T22:53:03.790Z,26.43
2023-03-13T22:55:33.591Z,27.90
2023-03-13T22:58:02.144Z,22.83
2023-03-13T23:00:30.281Z,24.03
2023-03-13T23:02:58.554Z,24.33
2023-03-13T23:05:26.701Z,26.93
2023-03-13T23:07:54.925Z,25.10
2023-03-13T23:10:23.278Z,26.80
2023-03-13T23:12:51.563Z,24.00
2023-03-13T23:15:19.901Z,19.97
2023-03-13T23:17:48.202Z,19.07
2023-03-13T23:20:16.816Z,22.73
2023-03-13T23:22:45.898Z,27.30
2023-03-13T23:25:15.222Z,22.10
2023-03-13T23:27:43.576Z,25.57
2023-03-13T23:30:13.525Z,29.17
2023-03-13T23:32:42.669Z,23.40
2023-03-13T23:35:11.977Z,25.73
2023-03-13T23:37:40.138Z,18.53
2023-03-13T23:40:09.273Z,15.47
2023-03-13T23:42:37.659Z,17.70
2023-03-13T23:45:07.085Z,18.47
2023-03-13T23:47:35.417Z,22.60
2023-03-13T23:50:05.165Z,19.40
2023-03-13T23:55:02.634Z,10.70
2023-03-13T23:57:32.032Z,13.90
